sensor_id;sensor_type;location;lat;lon;timestamp;P1;durP1;ratioP1;P2;durP2;ratioP2
75297;SDS011;63896;45.990;18.688;2023-01-01T00:00:38;50.95;;;21.00;;
75297;SDS011;63896;45.990;18.688;2023-01-01T00:03:41;25.63;;;11.52;;
75297;SDS011;63896;45.990;18.688;2023-01-01T00:06:44;22.23;;;12.05;;
75297;SDS011;63896;45.990;18.688;2023-01-01T00:09:47;29.30;;;14.03;;
75297;SDS011;63896;45.990;18.688;2023-01-01T00:13:10;28.00;;;13.53;;
75297;SDS011;63896;45.990;18.688;2023-01-01T00:16:15;24.90;;;12.65;;
75297;SDS011;63896;45.990;18.688;2023-01-01T00:19:18;25.73;;;12.93;;
75297;SDS011;63896;45.990;18.688;2023-01-01T00:22:20;16.05;;;8.30;;
75297;SDS011;63896;45.990;18.688;2023-01-01T00:25:43;14.93;;;7.50;;
75297;SDS011;63896;45.990;18.688;2023-01-01T00:28:46;15.23;;;8.67;;
75297;SDS011;63896;45.990;18.688;2023-01-01T00:31:49;15.00;;;8.50;;
75297;SDS011;63896;45.990;18.688;2023-01-01T00:34:53;18.58;;;10.18;;
75297;SDS011;63896;45.990;18.688;2023-01-01T00:37:56;19.45;;;9.90;;
75297;SDS011;63896;45.990;18.688;2023-01-01T00:40:58;22.88;;;12.25;;
75297;SDS011;63896;45.990;18.688;2023-01-01T00:44:01;34.03;;;13.40;;
75297;SDS011;63896;45.990;18.688;2023-01-01T00:47:04;30.25;;;13.95;;
75297;SDS011;63896;45.990;18.688;2023-01-01T00:50:07;29.75;;;13.75;;
75297;SDS011;63896;45.990;18.688;2023-01-01T00:53:10;23.50;;;12.32;;
75297;SDS011;63896;45.990;18.688;2023-01-01T00:56:13;20.20;;;10.47;;
75297;SDS011;63896;45.990;18.688;2023-01-01T00:59:16;25.17;;;11.50;;
75297;SDS011;63896;45.990;18.688;2023-01-01T01:02:25;28.17;;;12.57;;
75297;SDS011;63896;45.990;18.688;2023-01-01T01:05:28;22.13;;;10.77;;
75297;SDS011;63896;45.990;18.688;2023-01-01T01:08:32;22.08;;;11.20;;
75297;SDS011;63896;45.990;18.688;2023-01-01T01:11:36;25.60;;;11.32;;
75297;SDS011;63896;45.990;18.688;2023-01-01T01:14:39;26.67;;;11.27;;
75297;SDS011;63896;45.990;18.688;2023-01-01T01:17:42;21.00;;;9.38;;
75297;SDS011;63896;45.990;18.688;2023-01-01T01:20:52;19.67;;;10.07;;
75297;SDS011;63896;45.990;18.688;2023-01-01T01:23:58;21.30;;;10.88;;
75297;SDS011;63896;45.990;18.688;2023-01-01T01:27:03;21.53;;;9.87;;
75297;SDS011;63896;45.990;18.688;2023-01-01T01:30:06;22.33;;;10.23;;
75297;SDS011;63896;45.990;18.688;2023-01-01T01:33:09;23.73;;;11.27;;
75297;SDS011;63896;45.990;18.688;2023-01-01T01:36:12;25.52;;;11.70;;
75297;SDS011;63896;45.990;18.688;2023-01-01T01:39:16;23.10;;;11.68;;
75297;SDS011;63896;45.990;18.688;2023-01-01T01:42:19;29.43;;;10.97;;
75297;SDS011;63896;45.990;18.688;2023-01-01T01:45:23;21.33;;;11.10;;
75297;SDS011;63896;45.990;18.688;2023-01-01T01:48:38;21.77;;;10.57;;
75297;SDS011;63896;45.990;18.688;2023-01-01T01:51:45;21.13;;;10.32;;
75297;SDS011;63896;45.990;18.688;2023-01-01T01:54:48;22.10;;;11.20;;
75297;SDS011;63896;45.990;18.688;2023-01-01T01:57:51;21.40;;;11.03;;
75297;SDS011;63896;45.990;18.688;2023-01-01T02:00:55;29.37;;;13.07;;
75297;SDS011;63896;45.990;18.688;2023-01-01T02:03:59;29.92;;;12.50;;
75297;SDS011;63896;45.990;18.688;2023-01-01T02:07:03;25.70;;;12.20;;
75297;SDS011;63896;45.990;18.688;2023-01-01T02:10:06;23.80;;;11.70;;
75297;SDS011;63896;45.990;18.688;2023-01-01T02:13:09;35.07;;;14.00;;
75297;SDS011;63896;45.990;18.688;2023-01-01T02:16:36;35.43;;;12.70;;
75297;SDS011;63896;45.990;18.688;2023-01-01T02:20:31;29.35;;;11.45;;
75297;SDS011;63896;45.990;18.688;2023-01-01T02:26:58;25.75;;;10.57;;
75297;SDS011;63896;45.990;18.688;2023-01-01T02:30:07;61.22;;;21.50;;
75297;SDS011;63896;45.990;18.688;2023-01-01T02:33:12;33.57;;;14.27;;
75297;SDS011;63896;45.990;18.688;2023-01-01T02:36:20;27.63;;;11.80;;
75297;SDS011;63896;45.990;18.688;2023-01-01T02:39:25;26.38;;;11.48;;
75297;SDS011;63896;45.990;18.688;2023-01-01T02:42:33;28.63;;;11.60;;
75297;SDS011;63896;45.990;18.688;2023-01-01T02:45:36;27.57;;;10.90;;
75297;SDS011;63896;45.990;18.688;2023-01-01T03:01:57;22.87;;;12.00;;
75297;SDS011;63896;45.990;18.688;2023-01-01T03:05:04;20.10;;;10.37;;
75297;SDS011;63896;45.990;18.688;2023-01-01T03:08:11;18.98;;;10.13;;
75297;SDS011;63896;45.990;18.688;2023-01-01T03:11:19;23.35;;;10.98;;
75297;SDS011;63896;45.990;18.688;2023-01-01T03:18:04;30.20;;;12.43;;
75297;SDS011;63896;45.990;18.688;2023-01-01T03:21:27;31.90;;;13.83;;
75297;SDS011;63896;45.990;18.688;2023-01-01T03:24:34;28.25;;;13.18;;
75297;SDS011;63896;45.990;18.688;2023-01-01T03:27:48;25.48;;;11.65;;
75297;SDS011;63896;45.990;18.688;2023-01-01T03:30:55;22.23;;;10.63;;
75297;SDS011;63896;45.990;18.688;2023-01-01T03:34:00;22.97;;;10.87;;
75297;SDS011;63896;45.990;18.688;2023-01-01T03:37:08;23.73;;;11.50;;
75297;SDS011;63896;45.990;18.688;2023-01-01T03:40:16;26.00;;;11.68;;
75297;SDS011;63896;45.990;18.688;2023-01-01T03:43:26;26.85;;;10.90;;
75297;SDS011;63896;45.990;18.688;2023-01-01T03:46:41;25.02;;;11.43;;
75297;SDS011;63896;45.990;18.688;2023-01-01T03:49:44;27.17;;;12.17;;
75297;SDS011;63896;45.990;18.688;2023-01-01T03:56:00;27.17;;;12.45;;
75297;SDS011;63896;45.990;18.688;2023-01-01T03:59:16;25.52;;;11.88;;
75297;SDS011;63896;45.990;18.688;2023-01-01T04:02:27;21.08;;;10.43;;
75297;SDS011;63896;45.990;18.688;2023-01-01T04:05:52;23.00;;;10.43;;
75297;SDS011;63896;45.990;18.688;2023-01-01T04:08:55;21.60;;;9.87;;
75297;SDS011;63896;45.990;18.688;2023-01-01T04:12:00;47.42;;;19.23;;
75297;SDS011;63896;45.990;18.688;2023-01-01T04:15:05;44.28;;;19.60;;
75297;SDS011;63896;45.990;18.688;2023-01-01T04:18:08;38.33;;;17.38;;
75297;SDS011;63896;45.990;18.688;2023-01-01T04:21:11;25.20;;;12.73;;
75297;SDS011;63896;45.990;18.688;2023-01-01T04:24:14;36.13;;;16.33;;
75297;SDS011;63896;45.990;18.688;2023-01-01T04:27:17;29.42;;;13.98;;
75297;SDS011;63896;45.990;18.688;2023-01-01T04:30:20;26.73;;;13.13;;
75297;SDS011;63896;45.990;18.688;2023-01-01T04:33:23;33.58;;;14.73;;
75297;SDS011;63896;45.990;18.688;2023-01-01T04:36:26;34.43;;;14.70;;
75297;SDS011;63896;45.990;18.688;2023-01-01T04:39:29;33.23;;;14.70;;
75297;SDS011;63896;45.990;18.688;2023-01-01T04:42:32;29.67;;;14.27;;
75297;SDS011;63896;45.990;18.688;2023-01-01T04:45:35;30.58;;;13.98;;
75297;SDS011;63896;45.990;18.688;2023-01-01T04:48:38;30.20;;;14.90;;
75297;SDS011;63896;45.990;18.688;2023-01-01T04:51:41;38.37;;;17.77;;
75297;SDS011;63896;45.990;18.688;2023-01-01T04:54:44;37.00;;;18.63;;
75297;SDS011;63896;45.990;18.688;2023-01-01T04:57:46;45.90;;;23.15;;
75297;SDS011;63896;45.990;18.688;2023-01-01T05:00:49;49.45;;;23.25;;
75297;SDS011;63896;45.990;18.688;2023-01-01T05:03:53;44.97;;;20.77;;
75297;SDS011;63896;45.990;18.688;2023-01-01T05:06:56;37.37;;;18.33;;
75297;SDS011;63896;45.990;18.688;2023-01-01T05:09:59;38.03;;;18.87;;
75297;SDS011;63896;45.990;18.688;2023-01-01T05:13:04;37.65;;;19.00;;
75297;SDS011;63896;45.990;18.688;2023-01-01T05:16:09;44.53;;;21.35;;
75297;SDS011;63896;45.990;18.688;2023-01-01T05:19:14;36.97;;;19.48;;
75297;SDS011;63896;45.990;18.688;2023-01-01T05:22:17;38.67;;;19.60;;
75297;SDS011;63896;45.990;18.688;2023-01-01T05:25:20;45.60;;;21.10;;
75297;SDS011;63896;45.990;18.688;2023-01-01T05:28:23;33.75;;;17.88;;
75297;SDS011;63896;45.990;18.688;2023-01-01T05:31:27;34.20;;;17.67;;
75297;SDS011;63896;45.990;18.688;2023-01-01T05:34:33;34.08;;;17.27;;
75297;SDS011;63896;45.990;18.688;2023-01-01T05:37:34;36.83;;;18.03;;
75297;SDS011;63896;45.990;18.688;2023-01-01T05:40:38;42.33;;;19.17;;
75297;SDS011;63896;45.990;18.688;2023-01-01T05:43:41;41.65;;;18.73;;
75297;SDS011;63896;45.990;18.688;2023-01-01T05:46:45;43.83;;;19.27;;
75297;SDS011;63896;45.990;18.688;2023-01-01T05:49:47;42.60;;;19.23;;
75297;SDS011;63896;45.990;18.688;2023-01-01T05:52:51;37.93;;;19.53;;
75297;SDS011;63896;45.990;18.688;2023-01-01T05:55:54;35.07;;;17.30;;
75297;SDS011;63896;45.990;18.688;2023-01-01T05:58:57;35.63;;;17.65;;
75297;SDS011;63896;45.990;18.688;2023-01-01T06:02:00;36.78;;;17.50;;
75297;SDS011;63896;45.990;18.688;2023-01-01T06:05:03;41.28;;;18.48;;
75297;SDS011;63896;45.990;18.688;2023-01-01T06:08:07;39.27;;;18.43;;
75297;SDS011;63896;45.990;18.688;2023-01-01T06:11:10;38.13;;;17.43;;
75297;SDS011;63896;45.990;18.688;2023-01-01T06:14:14;40.28;;;18.55;;
75297;SDS011;63896;45.990;18.688;2023-01-01T06:17:17;42.72;;;17.50;;
75297;SDS011;63896;45.990;18.688;2023-01-01T06:20:19;35.65;;;17.80;;
75297;SDS011;63896;45.990;18.688;2023-01-01T06:23:22;34.57;;;16.80;;
75297;SDS011;63896;45.990;18.688;2023-01-01T06:26:27;33.87;;;16.80;;
75297;SDS011;63896;45.990;18.688;2023-01-01T06:29:32;36.92;;;18.27;;
75297;SDS011;63896;45.990;18.688;2023-01-01T06:32:35;53.78;;;22.55;;
75297;SDS011;63896;45.990;18.688;2023-01-01T06:35:38;61.10;;;26.55;;
75297;SDS011;63896;45.990;18.688;2023-01-01T06:38:42;59.33;;;27.47;;
75297;SDS011;63896;45.990;18.688;2023-01-01T06:41:46;79.53;;;35.30;;
75297;SDS011;63896;45.990;18.688;2023-01-01T06:44:49;78.07;;;35.70;;
75297;SDS011;63896;45.990;18.688;2023-01-01T06:47:52;73.00;;;33.03;;
75297;SDS011;63896;45.990;18.688;2023-01-01T06:50:55;76.38;;;32.50;;
75297;SDS011;63896;45.990;18.688;2023-01-01T06:53:58;115.90;;;42.87;;
75297;SDS011;63896;45.990;18.688;2023-01-01T06:57:02;95.50;;;38.03;;
75297;SDS011;63896;45.990;18.688;2023-01-01T07:00:05;53.00;;;22.55;;
75297;SDS011;63896;45.990;18.688;2023-01-01T07:03:09;39.05;;;17.63;;
75297;SDS011;63896;45.990;18.688;2023-01-01T07:06:12;43.45;;;20.98;;
75297;SDS011;63896;45.990;18.688;2023-01-01T07:09:15;41.47;;;18.67;;
75297;SDS011;63896;45.990;18.688;2023-01-01T07:12:18;43.03;;;21.47;;
75297;SDS011;63896;45.990;18.688;2023-01-01T07:15:21;44.78;;;21.45;;
75297;SDS011;63896;45.990;18.688;2023-01-01T07:18:24;42.15;;;20.10;;
75297;SDS011;63896;45.990;18.688;2023-01-01T07:21:30;42.40;;;20.67;;
75297;SDS011;63896;45.990;18.688;2023-01-01T07:24:46;42.20;;;20.27;;
75297;SDS011;63896;45.990;18.688;2023-01-01T07:27:49;36.53;;;19.00;;
75297;SDS011;63896;45.990;18.688;2023-01-01T07:30:52;32.92;;;17.58;;
75297;SDS011;63896;45.990;18.688;2023-01-01T07:33:56;33.03;;;18.27;;
75297;SDS011;63896;45.990;18.688;2023-01-01T07:36:58;36.78;;;17.80;;
75297;SDS011;63896;45.990;18.688;2023-01-01T07:40:01;35.40;;;18.10;;
75297;SDS011;63896;45.990;18.688;2023-01-01T07:43:04;31.33;;;17.10;;
75297;SDS011;63896;45.990;18.688;2023-01-01T07:46:09;32.50;;;15.75;;
75297;SDS011;63896;45.990;18.688;2023-01-01T07:49:13;24.92;;;12.00;;
75297;SDS011;63896;45.990;18.688;2023-01-01T07:52:16;17.38;;;9.80;;
75297;SDS011;63896;45.990;18.688;2023-01-01T07:55:20;16.20;;;8.65;;
75297;SDS011;63896;45.990;18.688;2023-01-01T07:58:23;15.07;;;8.03;;
75297;SDS011;63896;45.990;18.688;2023-01-01T08:01:26;14.05;;;8.85;;
75297;SDS011;63896;45.990;18.688;2023-01-01T08:04:29;15.20;;;8.55;;
75297;SDS011;63896;45.990;18.688;2023-01-01T08:07:31;14.63;;;9.13;;
75297;SDS011;63896;45.990;18.688;2023-01-01T08:10:36;16.30;;;9.80;;
75297;SDS011;63896;45.990;18.688;2023-01-01T08:13:39;17.53;;;9.97;;
75297;SDS011;63896;45.990;18.688;2023-01-01T08:16:42;28.40;;;13.93;;
75297;SDS011;63896;45.990;18.688;2023-01-01T08:19:46;20.42;;;12.95;;
75297;SDS011;63896;45.990;18.688;2023-01-01T08:22:50;21.42;;;12.82;;
75297;SDS011;63896;45.990;18.688;2023-01-01T08:25:56;17.63;;;11.57;;
75297;SDS011;63896;45.990;18.688;2023-01-01T08:29:01;9.87;;;7.53;;
75297;SDS011;63896;45.990;18.688;2023-01-01T08:32:06;10.35;;;7.28;;
75297;SDS011;63896;45.990;18.688;2023-01-01T08:35:08;10.68;;;7.50;;
75297;SDS011;63896;45.990;18.688;2023-01-01T08:38:12;11.00;;;6.55;;
75297;SDS011;63896;45.990;18.688;2023-01-01T08:41:14;10.85;;;7.18;;
75297;SDS011;63896;45.990;18.688;2023-01-01T08:44:18;11.63;;;7.30;;
75297;SDS011;63896;45.990;18.688;2023-01-01T08:47:22;9.23;;;6.40;;
75297;SDS011;63896;45.990;18.688;2023-01-01T08:50:27;10.13;;;6.60;;
75297;SDS011;63896;45.990;18.688;2023-01-01T08:53:30;11.00;;;7.72;;
75297;SDS011;63896;45.990;18.688;2023-01-01T08:56:34;12.80;;;8.38;;
75297;SDS011;63896;45.990;18.688;2023-01-01T08:59:39;14.37;;;9.57;;
75297;SDS011;63896;45.990;18.688;2023-01-01T09:02:42;13.90;;;9.18;;
75297;SDS011;63896;45.990;18.688;2023-01-01T09:05:45;11.70;;;8.73;;
75297;SDS011;63896;45.990;18.688;2023-01-01T09:08:48;13.77;;;8.70;;
75297;SDS011;63896;45.990;18.688;2023-01-01T09:11:52;12.85;;;8.98;;
75297;SDS011;63896;45.990;18.688;2023-01-01T09:14:56;10.90;;;7.43;;
75297;SDS011;63896;45.990;18.688;2023-01-01T09:17:58;15.10;;;9.60;;
75297;SDS011;63896;45.990;18.688;2023-01-01T09:21:01;16.38;;;10.20;;
75297;SDS011;63896;45.990;18.688;2023-01-01T09:24:04;21.50;;;11.98;;
75297;SDS011;63896;45.990;18.688;2023-01-01T09:27:07;20.13;;;10.73;;
75297;SDS011;63896;45.990;18.688;2023-01-01T09:30:10;22.03;;;12.83;;
75297;SDS011;63896;45.990;18.688;2023-01-01T09:33:14;15.35;;;10.70;;
75297;SDS011;63896;45.990;18.688;2023-01-01T09:39:19;15.23;;;10.45;;
75297;SDS011;63896;45.990;18.688;2023-01-01T09:42:37;15.52;;;10.55;;
75297;SDS011;63896;45.990;18.688;2023-01-01T09:45:54;15.80;;;10.60;;
75297;SDS011;63896;45.990;18.688;2023-01-01T09:49:05;17.95;;;11.13;;
75297;SDS011;63896;45.990;18.688;2023-01-01T09:52:15;14.43;;;10.25;;
75297;SDS011;63896;45.990;18.688;2023-01-01T09:55:21;15.10;;;10.68;;
75297;SDS011;63896;45.990;18.688;2023-01-01T09:58:36;16.75;;;11.05;;
75297;SDS011;63896;45.990;18.688;2023-01-01T10:14:48;16.45;;;11.73;;
75297;SDS011;63896;45.990;18.688;2023-01-01T10:18:03;17.47;;;12.53;;
75297;SDS011;63896;45.990;18.688;2023-01-01T10:21:16;17.55;;;11.80;;
75297;SDS011;63896;45.990;18.688;2023-01-01T10:27:46;19.30;;;12.98;;
75297;SDS011;63896;45.990;18.688;2023-01-01T10:34:47;17.07;;;11.13;;
75297;SDS011;63896;45.990;18.688;2023-01-01T10:37:51;21.40;;;14.32;;
75297;SDS011;63896;45.990;18.688;2023-01-01T10:40:55;26.40;;;16.17;;
75297;SDS011;63896;45.990;18.688;2023-01-01T10:44:04;16.35;;;9.15;;
75297;SDS011;63896;45.990;18.688;2023-01-01T10:50:13;16.80;;;11.57;;
75297;SDS011;63896;45.990;18.688;2023-01-01T10:53:30;17.67;;;12.43;;
75297;SDS011;63896;45.990;18.688;2023-01-01T10:56:40;14.45;;;10.13;;
75297;SDS011;63896;45.990;18.688;2023-01-01T10:59:44;14.32;;;10.60;;
75297;SDS011;63896;45.990;18.688;2023-01-01T11:06:25;16.30;;;10.40;;
75297;SDS011;63896;45.990;18.688;2023-01-01T11:09:31;17.40;;;10.05;;
75297;SDS011;63896;45.990;18.688;2023-01-01T11:12:38;10.50;;;7.28;;
75297;SDS011;63896;45.990;18.688;2023-01-01T11:16:01;17.60;;;9.68;;
75297;SDS011;63896;45.990;18.688;2023-01-01T11:19:21;15.95;;;8.80;;
75297;SDS011;63896;45.990;18.688;2023-01-01T11:22:35;16.40;;;9.87;;
75297;SDS011;63896;45.990;18.688;2023-01-01T11:25:38;21.50;;;12.20;;
75297;SDS011;63896;45.990;18.688;2023-01-01T11:28:41;18.05;;;11.70;;
75297;SDS011;63896;45.990;18.688;2023-01-01T11:31:44;19.05;;;12.30;;
75297;SDS011;63896;45.990;18.688;2023-01-01T11:34:59;14.07;;;10.27;;
75297;SDS011;63896;45.990;18.688;2023-01-01T11:38:14;17.67;;;11.10;;
75297;SDS011;63896;45.990;18.688;2023-01-01T11:41:27;18.17;;;11.98;;
75297;SDS011;63896;45.990;18.688;2023-01-01T11:44:35;19.08;;;12.02;;
75297;SDS011;63896;45.990;18.688;2023-01-01T11:47:42;17.80;;;11.10;;
75297;SDS011;63896;45.990;18.688;2023-01-01T11:50:57;19.83;;;11.30;;
75297;SDS011;63896;45.990;18.688;2023-01-01T11:54:07;23.43;;;13.77;;
75297;SDS011;63896;45.990;18.688;2023-01-01T11:57:16;26.25;;;14.90;;
75297;SDS011;63896;45.990;18.688;2023-01-01T12:00:24;25.50;;;14.23;;
75297;SDS011;63896;45.990;18.688;2023-01-01T12:13:04;24.02;;;13.57;;
75297;SDS011;63896;45.990;18.688;2023-01-01T12:16:15;21.85;;;12.93;;
75297;SDS011;63896;45.990;18.688;2023-01-01T12:19:34;25.67;;;14.18;;
75297;SDS011;63896;45.990;18.688;2023-01-01T12:22:59;19.63;;;12.90;;
75297;SDS011;63896;45.990;18.688;2023-01-01T12:56:48;22.25;;;14.18;;
75297;SDS011;63896;45.990;18.688;2023-01-01T13:00:17;21.17;;;13.73;;
75297;SDS011;63896;45.990;18.688;2023-01-01T13:03:29;28.95;;;16.45;;
75297;SDS011;63896;45.990;18.688;2023-01-01T13:06:49;35.30;;;22.33;;
75297;SDS011;63896;45.990;18.688;2023-01-01T13:09:55;37.58;;;22.95;;
75297;SDS011;63896;45.990;18.688;2023-01-01T13:12:59;42.97;;;26.55;;
75297;SDS011;63896;45.990;18.688;2023-01-01T13:16:03;28.60;;;16.93;;
75297;SDS011;63896;45.990;18.688;2023-01-01T13:25:40;24.27;;;15.88;;
75297;SDS011;63896;45.990;18.688;2023-01-01T13:32:13;19.97;;;12.27;;
75297;SDS011;63896;45.990;18.688;2023-01-01T13:35:16;16.77;;;10.30;;
75297;SDS011;63896;45.990;18.688;2023-01-01T13:41:47;15.85;;;9.70;;
75297;SDS011;63896;45.990;18.688;2023-01-01T13:44:50;20.17;;;11.75;;
75297;SDS011;63896;45.990;18.688;2023-01-01T13:47:57;24.17;;;11.93;;
75297;SDS011;63896;45.990;18.688;2023-01-01T14:05:29;32.43;;;17.27;;
75297;SDS011;63896;45.990;18.688;2023-01-01T14:08:36;23.45;;;12.52;;
75297;SDS011;63896;45.990;18.688;2023-01-01T14:11:39;17.20;;;10.38;;
75297;SDS011;63896;45.990;18.688;2023-01-01T14:14:43;20.17;;;11.43;;
75297;SDS011;63896;45.990;18.688;2023-01-01T14:17:46;21.95;;;11.77;;
75297;SDS011;63896;45.990;18.688;2023-01-01T14:20:51;23.83;;;11.83;;
75297;SDS011;63896;45.990;18.688;2023-01-01T14:23:56;38.22;;;16.50;;
75297;SDS011;63896;45.990;18.688;2023-01-01T14:27:05;26.52;;;13.93;;
75297;SDS011;63896;45.990;18.688;2023-01-01T14:30:13;21.27;;;12.75;;
75297;SDS011;63896;45.990;18.688;2023-01-01T14:33:22;25.10;;;13.27;;
75297;SDS011;63896;45.990;18.688;2023-01-01T14:36:28;19.83;;;11.90;;
75297;SDS011;63896;45.990;18.688;2023-01-01T14:39:33;33.40;;;17.02;;
75297;SDS011;63896;45.990;18.688;2023-01-01T14:42:38;37.45;;;19.40;;
75297;SDS011;63896;45.990;18.688;2023-01-01T14:45:42;43.58;;;21.48;;
75297;SDS011;63896;45.990;18.688;2023-01-01T14:48:46;50.17;;;23.92;;
75297;SDS011;63896;45.990;18.688;2023-01-01T14:52:14;59.90;;;24.80;;
75297;SDS011;63896;45.990;18.688;2023-01-01T14:55:22;48.60;;;24.52;;
75297;SDS011;63896;45.990;18.688;2023-01-01T14:58:29;41.88;;;21.70;;
75297;SDS011;63896;45.990;18.688;2023-01-01T15:01:33;32.92;;;18.52;;
75297;SDS011;63896;45.990;18.688;2023-01-01T15:04:36;50.38;;;24.00;;
75297;SDS011;63896;45.990;18.688;2023-01-01T15:07:39;43.57;;;23.83;;
75297;SDS011;63896;45.990;18.688;2023-01-01T15:10:46;46.20;;;25.08;;
75297;SDS011;63896;45.990;18.688;2023-01-01T15:13:54;50.20;;;26.95;;
75297;SDS011;63896;45.990;18.688;2023-01-01T15:17:05;78.88;;;42.20;;
75297;SDS011;63896;45.990;18.688;2023-01-01T15:20:23;65.65;;;34.33;;
75297;SDS011;63896;45.990;18.688;2023-01-01T15:23:26;80.43;;;41.73;;
75297;SDS011;63896;45.990;18.688;2023-01-01T15:26:30;70.75;;;39.35;;
75297;SDS011;63896;45.990;18.688;2023-01-01T15:29:39;102.03;;;47.63;;
75297;SDS011;63896;45.990;18.688;2023-01-01T15:32:52;90.63;;;44.05;;
75297;SDS011;63896;45.990;18.688;2023-01-01T15:35:55;88.47;;;45.58;;
75297;SDS011;63896;45.990;18.688;2023-01-01T15:39:08;69.53;;;37.33;;
75297;SDS011;63896;45.990;18.688;2023-01-01T15:42:36;66.65;;;36.17;;
75297;SDS011;63896;45.990;18.688;2023-01-01T15:45:39;68.45;;;39.95;;
75297;SDS011;63896;45.990;18.688;2023-01-01T15:48:48;67.90;;;37.30;;
75297;SDS011;63896;45.990;18.688;2023-01-01T15:51:53;61.63;;;37.03;;
75297;SDS011;63896;45.990;18.688;2023-01-01T15:54:58;77.60;;;40.83;;
75297;SDS011;63896;45.990;18.688;2023-01-01T15:58:01;78.57;;;43.60;;
75297;SDS011;63896;45.990;18.688;2023-01-01T16:01:07;87.57;;;44.42;;
75297;SDS011;63896;45.990;18.688;2023-01-01T16:07:29;61.88;;;32.38;;
75297;SDS011;63896;45.990;18.688;2023-01-01T16:10:33;82.47;;;38.83;;
75297;SDS011;63896;45.990;18.688;2023-01-01T16:13:36;85.30;;;42.90;;
75297;SDS011;63896;45.990;18.688;2023-01-01T16:16:39;79.15;;;41.63;;
75297;SDS011;63896;45.990;18.688;2023-01-01T16:19:46;71.18;;;38.13;;
75297;SDS011;63896;45.990;18.688;2023-01-01T16:22:49;68.35;;;38.45;;
75297;SDS011;63896;45.990;18.688;2023-01-01T16:25:52;71.67;;;38.10;;
75297;SDS011;63896;45.990;18.688;2023-01-01T16:28:55;66.22;;;35.22;;
75297;SDS011;63896;45.990;18.688;2023-01-01T16:31:58;70.10;;;36.80;;
75297;SDS011;63896;45.990;18.688;2023-01-01T16:35:01;63.35;;;32.75;;
75297;SDS011;63896;45.990;18.688;2023-01-01T16:38:13;63.22;;;32.80;;
75297;SDS011;63896;45.990;18.688;2023-01-01T16:41:16;65.63;;;32.07;;
75297;SDS011;63896;45.990;18.688;2023-01-01T16:44:20;66.82;;;34.97;;
75297;SDS011;63896;45.990;18.688;2023-01-01T16:47:22;88.80;;;44.83;;
75297;SDS011;63896;45.990;18.688;2023-01-01T16:50:29;88.88;;;46.30;;
75297;SDS011;63896;45.990;18.688;2023-01-01T16:53:31;98.55;;;50.50;;
75297;SDS011;63896;45.990;18.688;2023-01-01T16:56:35;94.07;;;49.60;;
75297;SDS011;63896;45.990;18.688;2023-01-01T16:59:38;120.18;;;60.53;;
75297;SDS011;63896;45.990;18.688;2023-01-01T17:02:41;165.90;;;83.05;;
75297;SDS011;63896;45.990;18.688;2023-01-01T17:05:45;301.52;;;159.15;;
75297;SDS011;63896;45.990;18.688;2023-01-01T17:08:47;319.65;;;168.27;;
75297;SDS011;63896;45.990;18.688;2023-01-01T17:11:52;382.70;;;205.70;;
75297;SDS011;63896;45.990;18.688;2023-01-01T17:14:55;362.20;;;198.20;;
75297;SDS011;63896;45.990;18.688;2023-01-01T17:17:58;402.48;;;223.77;;
75297;SDS011;63896;45.990;18.688;2023-01-01T17:21:01;201.10;;;112.88;;
75297;SDS011;63896;45.990;18.688;2023-01-01T17:24:08;147.10;;;77.07;;
75297;SDS011;63896;45.990;18.688;2023-01-01T17:27:11;236.50;;;97.00;;
75297;SDS011;63896;45.990;18.688;2023-01-01T17:30:14;157.02;;;78.35;;
75297;SDS011;63896;45.990;18.688;2023-01-01T17:33:17;149.63;;;77.68;;
75297;SDS011;63896;45.990;18.688;2023-01-01T17:36:20;178.82;;;68.03;;
75297;SDS011;63896;45.990;18.688;2023-01-01T17:39:23;164.38;;;72.28;;
75297;SDS011;63896;45.990;18.688;2023-01-01T17:42:26;196.50;;;92.33;;
75297;SDS011;63896;45.990;18.688;2023-01-01T17:45:29;117.72;;;60.50;;
75297;SDS011;63896;45.990;18.688;2023-01-01T17:48:31;95.75;;;53.97;;
75297;SDS011;63896;45.990;18.688;2023-01-01T17:51:35;121.07;;;63.63;;
75297;SDS011;63896;45.990;18.688;2023-01-01T17:54:38;140.48;;;71.95;;
75297;SDS011;63896;45.990;18.688;2023-01-01T17:57:41;164.90;;;80.77;;
75297;SDS011;63896;45.990;18.688;2023-01-01T18:00:44;140.35;;;66.88;;
75297;SDS011;63896;45.990;18.688;2023-01-01T18:03:48;137.65;;;62.80;;
75297;SDS011;63896;45.990;18.688;2023-01-01T18:07:01;114.45;;;55.55;;
75297;SDS011;63896;45.990;18.688;2023-01-01T18:10:08;132.18;;;64.13;;
75297;SDS011;63896;45.990;18.688;2023-01-01T18:13:12;147.73;;;70.50;;
75297;SDS011;63896;45.990;18.688;2023-01-01T18:16:15;154.90;;;73.85;;
75297;SDS011;63896;45.990;18.688;2023-01-01T18:19:18;151.07;;;73.93;;
75297;SDS011;63896;45.990;18.688;2023-01-01T18:22:21;109.55;;;55.80;;
75297;SDS011;63896;45.990;18.688;2023-01-01T18:25:24;101.07;;;50.97;;
75297;SDS011;63896;45.990;18.688;2023-01-01T18:28:27;113.83;;;54.83;;
75297;SDS011;63896;45.990;18.688;2023-01-01T18:31:31;123.55;;;62.45;;
75297;SDS011;63896;45.990;18.688;2023-01-01T18:34:35;194.20;;;82.10;;
75297;SDS011;63896;45.990;18.688;2023-01-01T18:37:38;194.38;;;76.18;;
75297;SDS011;63896;45.990;18.688;2023-01-01T18:40:44;141.33;;;61.20;;
75297;SDS011;63896;45.990;18.688;2023-01-01T18:44:00;129.93;;;61.90;;
75297;SDS011;63896;45.990;18.688;2023-01-01T18:50:13;96.00;;;48.45;;
75297;SDS011;63896;45.990;18.688;2023-01-01T18:53:21;76.85;;;39.03;;
75297;SDS011;63896;45.990;18.688;2023-01-01T18:56:25;92.07;;;42.42;;
75297;SDS011;63896;45.990;18.688;2023-01-01T18:59:33;65.90;;;30.93;;
75297;SDS011;63896;45.990;18.688;2023-01-01T19:02:42;62.00;;;30.35;;
75297;SDS011;63896;45.990;18.688;2023-01-01T19:05:47;34.08;;;18.63;;
75297;SDS011;63896;45.990;18.688;2023-01-01T19:08:51;53.30;;;24.98;;
75297;SDS011;63896;45.990;18.688;2023-01-01T19:12:16;58.88;;;30.88;;
75297;SDS011;63896;45.990;18.688;2023-01-01T19:15:20;56.87;;;29.30;;
75297;SDS011;63896;45.990;18.688;2023-01-01T19:18:24;89.47;;;40.95;;
75297;SDS011;63896;45.990;18.688;2023-01-01T19:21:33;100.22;;;47.47;;
75297;SDS011;63896;45.990;18.688;2023-01-01T19:24:37;67.82;;;35.15;;
75297;SDS011;63896;45.990;18.688;2023-01-01T19:27:42;69.53;;;35.23;;
75297;SDS011;63896;45.990;18.688;2023-01-01T19:30:50;65.47;;;35.17;;
75297;SDS011;63896;45.990;18.688;2023-01-01T19:33:53;74.78;;;40.90;;
75297;SDS011;63896;45.990;18.688;2023-01-01T19:36:56;71.95;;;40.25;;
75297;SDS011;63896;45.990;18.688;2023-01-01T19:39:59;78.22;;;43.35;;
75297;SDS011;63896;45.990;18.688;2023-01-01T19:43:03;77.22;;;42.20;;
75297;SDS011;63896;45.990;18.688;2023-01-01T19:46:08;73.43;;;37.77;;
75297;SDS011;63896;45.990;18.688;2023-01-01T19:49:11;102.25;;;54.45;;
75297;SDS011;63896;45.990;18.688;2023-01-01T19:52:15;98.03;;;51.38;;
75297;SDS011;63896;45.990;18.688;2023-01-01T19:55:17;83.72;;;44.03;;
75297;SDS011;63896;45.990;18.688;2023-01-01T19:58:20;78.40;;;42.38;;